Rayle, GA (30660)

8:09 AM EDT on July 30, 2014 (GMT -0400)
Washington-Wilkes County (KIIY) Elev 646 ft | 33.78 °N, 82.82 °W | Change Station

Current weather conditions updated 14 minutes ago

Clear
Clear
68 °F
Feels Like 68 °F
N
4
Wind Variable Wind from NNE

Today is forecast to be nearly the same temperature as yesterday.

Today
High -- | Low -- °F
--% Chance of Precip.
Yesterday
High -- | Low -- °F
Precip. -- in
6:42 AM 8:33 PM
Waxing Crescent, 11% visible
Pressure 30.04 in
Visibility 10.0 miles
Clouds Clear
Dew Point 63 °F
Humidity 83%
Rainfall 0.00 in
Snow Depth Not available.
UV 1 out of 12
Pollen 5.30 out of 12
Air Quality Not available.
Flu Activity Not available.
METAR KIIY 301155Z AUTO 02003KT 10SM CLR 20/17 A3004 RMK AO2

More Conditions Fewer Conditions

Pressure 30.04 in
Visibility 10.0 miles
Clouds Clear
Dew Point 63 °F
Humidity 83%
Rainfall 0.00 in
Snow Depth Not available.
UV 1 out of 12
Pollen 5.30 out of 12
Air Quality Not available.
Flu Activity Not available.
METAR KIIY 301155Z AUTO 02003KT 10SM CLR 20/17 A3004 RMK AO2

More Conditions Fewer Conditions

10-Day Weather Forecast

Almanac

Astronomy

Jul. 30, 2014 Rise Set
Actual Time 6:42 AM EDT 8:33 PM EDT
Civil Twilight 6:14 AM EDT 9:00 PM EDT
Nautical Twilight 5:41 AM EDT 9:34 PM EDT
Astronomical Twilight 5:06 AM EDT 10:09 PM EDT
Moon 10:00 AM EDT 10:29 PM EDT
Length of Visible Light 14h 46m
Length of Day
13h 51m
Tomorrow will be 1m 32s shorter.
Waxing Crescent, 11% of the Moon is Illuminated
Today
Waxing Crescent
Aug 3
First Quarter
Aug 10
Full
Aug 17
Last Quarter
Aug 25
New

Today's Extremes

State Highs State Lows

Community

WunderPhotos

Upload Photos

1,739,047 photos uploaded!

Nearby

Snow Depth

Station Depth Elevation
No new snow has been reported.

Earthquake Activity

City Distance Mag. Time & Date
No recent earthquake activity has been reported nearby.
Minimum magnitude displayed is 2.5.

Coastal Water Temperatures

Place Temperature
No Stations Reporting

Nearby Weather Stations

Station Location Temp. Dew Point Humidity Wind Precip. Elev Updated Type
RAWS WASHINGTON GA, Tignall, GA 62 °F 56 °F 81% NNE  at  2 mph 0.00 in / hr 616 ft 7:02 AM EDT MADIS
Dancing Pines, Crawfordville, GA 63.5 °F 60 °F 88% North  at  0.0 mph 0.00 in / hr 581 ft 8:00 AM EDT Normal
APRSWXNET Lexington GA , Lexington, GA 58 °F 55 °F 89% SE  at  0 mph 0.00 in / hr 728 ft 7:15 AM EDT MADIS
Deerlick Astronomy Village (BE), Sharon, GA 61.9 °F 62 °F 100% NE  at  0.0 mph 0.00 in / hr 571 ft 8:07 AM EDT Rapid Fire
Deerlick Astronomy Village, Sharon, GA 58.9 °F 58 °F 96% North  at  0.0 mph 0.00 in / hr 558 ft 7:15 AM EDT Normal
Lincoln County Board of Education, Lincolnton, GA 69.1 °F 58 °F 69% ENE  at  0.0 mph 0.00 in / hr 443 ft 8:09 AM EDT Rapid Fire
Wyndfield, Athens-Clarke County, GA 61.7 °F 48 °F 60% WSW  at  0.0 mph 0.00 in / hr 647 ft 8:09 AM EDT Rapid Fire

Show More Stations Show Fewer Stations